Springlake, TX (79082)

11:43 PM CST am 05. Dezember 2016 (GMT -0600)
OTT FARM | | Change Station

Höhe 3858 ft 34.38 °N, 102.49 °W | Updated 10 seconds ago

Clear
Heiter
47.3 °F
gefühlte 40 °F
N
20.0
Wind Wechselnd Wind aus West

Heute
Max. -- | schwach -- °F
--% Regenrisiko
Gestern
Max. -- | schwach -- °F
Precip. -- inch
Druck 29.67 inch
Sichtweite 10.0 Meilen
Wolken Heiter
Windchill 40 °F
Taupunkt 22 °F
Feuchtigkeit 37%
Regen 0.00 inch
Schneehöhe Nicht verfügbar..
7:40 AM 5:39 PM
Erstes Viertel, 38% visible
METAR KPVW 060535Z AUTO 29012KT 10SM CLR 08/M03 A2967 RMK AO2 T00831033
Druck 29.67 inch
Sichtweite 10.0 Meilen
Wolken Heiter
Windchill 40 °F
Taupunkt 22 °F
Feuchtigkeit 37%
Regen 0.00 inch
Schneehöhe Nicht verfügbar..
7:40 AM 5:39 PM
Erstes Viertel, 38% visible
METAR KPVW 060535Z AUTO 29012KT 10SM CLR 08/M03 A2967 RMK AO2 T00831033

10-Day Weather Forecast

Almanac

Astronomie

Dec. 05, 2016 Aufgang Untergang
Genaue Zeit
Bürgerliche Dämmerung
Nautische Dämmerung
Astronomische Dämmerung
Mond
Länge des sichtbaren Lichts
Tageslänge
Tomorrow will be .
, % of the Moon is Illuminated

Heutige Rekorde

State Highs State Lows

Community

WunderPhotos

Upload Photos

1,955,931 Fotos hochgeladen!

WunderBlog® & News

Nearby

Luftqualität

  Luftqualität LQ Index Schadstoff
Not available.

Schneehöhe

Station Depth Höhe

Erdbebenaktivität

Stadt Distance Mag. Time & Date
Minimum magnitude displayed is 2.5.

küstennahe Wassertemperaturen

Ort Temperatur

Stations

Wetterstationen in der Umgebung

Stationsstandort Temp. Windchill Taupunkt Feuchtigkeit Wind Precip. Höhe Aktualisiert Art
                   

Watches & Warnings

There are currently no watches in effect.